createdAt,value
2019-05-10T00:00:08.692Z,1.83
2019-05-10T00:02:55.444Z,1.60
2019-05-10T00:05:41.727Z,2.40
2019-05-10T00:08:27.998Z,1.80
2019-05-10T00:11:34.347Z,2.00
2019-05-10T00:14:28.722Z,2.13
2019-05-10T00:17:02.012Z,2.00
2019-05-10T00:19:30.609Z,2.50
2019-05-10T00:21:59.212Z,2.17
2019-05-10T00:24:27.836Z,2.37
2019-05-10T00:26:56.470Z,2.50
2019-05-10T00:29:25.175Z,2.50
2019-05-10T00:31:53.778Z,1.90
2019-05-10T00:34:22.384Z,2.57
2019-05-10T00:36:51.074Z,2.60
2019-05-10T00:39:19.685Z,2.80
2019-05-10T00:41:48.327Z,2.70
2019-05-10T00:44:16.933Z,2.37
2019-05-10T00:46:45.554Z,2.83
2019-05-10T00:49:14.261Z,2.73
2019-05-10T00:51:42.922Z,2.80
2019-05-10T00:54:11.528Z,3.07
2019-05-10T00:56:40.157Z,3.13
2019-05-10T00:59:08.758Z,2.83
2019-05-10T01:01:37.391Z,2.63
2019-05-10T01:04:06.041Z,3.00
2019-05-10T01:06:34.667Z,3.27
2019-05-10T01:09:04.444Z,3.03
2019-05-10T01:11:33.074Z,3.03
2019-05-10T01:14:01.663Z,3.67
2019-05-10T01:16:30.275Z,4.13
2019-05-10T01:18:58.901Z,3.77
2019-05-10T01:21:27.643Z,3.62
2019-05-10T01:23:56.235Z,3.80
2019-05-10T01:26:24.852Z,3.87
2019-05-10T01:28:53.467Z,3.47
2019-05-10T01:31:22.073Z,3.70
2019-05-10T01:33:50.678Z,3.60
2019-05-10T01:36:20.851Z,3.77
2019-05-10T01:38:49.464Z,3.80
2019-05-10T01:41:18.149Z,3.37
2019-05-10T01:43:46.866Z,3.83
2019-05-10T01:46:15.482Z,3.23
2019-05-10T01:48:44.155Z,3.37
2019-05-10T01:51:12.767Z,4.17
2019-05-10T01:53:41.399Z,3.27
2019-05-10T01:56:10.047Z,3.50
2019-05-10T01:58:38.649Z,4.00
2019-05-10T02:01:07.304Z,3.67
2019-05-10T02:03:36.020Z,3.33
2019-05-10T02:06:04.713Z,3.30
2019-05-10T02:08:33.312Z,3.33
2019-05-10T02:11:02.317Z,4.17
2019-05-10T02:13:30.931Z,3.10
2019-05-10T02:15:59.620Z,4.20
2019-05-10T02:18:28.349Z,3.22
2019-05-10T02:20:56.958Z,3.80
2019-05-10T02:23:25.581Z,3.70
2019-05-10T02:26:08.353Z,3.73
2019-05-10T02:28:24.650Z,4.07
2019-05-10T02:30:53.269Z,4.20
2019-05-10T02:33:21.998Z,3.50
2019-05-10T02:35:50.606Z,4.13
2019-05-10T02:38:19.233Z,3.40
2019-05-10T02:40:47.843Z,4.10
2019-05-10T02:43:16.558Z,3.80
2019-05-10T02:45:45.164Z,3.87
2019-05-10T02:48:13.793Z,3.63
2019-05-10T02:50:42.390Z,4.40
2019-05-10T02:53:11.287Z,4.20
2019-05-10T02:55:40.163Z,4.27
2019-05-10T02:58:08.982Z,3.80
2019-05-10T03:00:41.010Z,3.60
2019-05-10T03:03:09.701Z,4.30
2019-05-10T03:05:38.386Z,3.73
2019-05-10T03:08:07.018Z,3.77
2019-05-10T03:10:38.450Z,4.33
2019-05-10T03:13:07.218Z,3.60
2019-05-10T03:15:37.344Z,4.50
2019-05-10T03:18:06.139Z,4.17
2019-05-10T03:20:36.627Z,4.37
2019-05-10T03:23:05.325Z,4.53
2019-05-10T03:25:34.185Z,4.50
2019-05-10T03:28:02.803Z,4.70
2019-05-10T03:30:31.659Z,4.90
2019-05-10T03:33:00.286Z,5.60
2019-05-10T03:35:29.140Z,5.27
2019-05-10T03:37:57.897Z,5.10
2019-05-10T03:40:26.513Z,5.50
2019-05-10T03:42:55.256Z,5.57
2019-05-10T03:45:23.889Z,5.90
2019-05-10T03:47:52.499Z,5.40
2019-05-10T03:50:21.105Z,5.60
2019-05-10T03:52:52.302Z,5.70
2019-05-10T03:55:20.258Z,6.00
2019-05-10T03:57:48.874Z,6.80
2019-05-10T04:00:17.740Z,7.10
2019-05-10T04:02:46.440Z,5.37
2019-05-10T04:05:15.723Z,6.43
2019-05-10T04:07:44.590Z,7.35
2019-05-10T04:10:14.232Z,7.03
2019-05-10T04:12:42.836Z,7.10
2019-05-10T04:15:11.497Z,8.37
2019-05-10T04:17:40.241Z,8.87
2019-05-10T04:20:09.319Z,8.40
2019-05-10T04:22:38.037Z,8.80
2019-05-10T04:25:06.945Z,8.63
2019-05-10T04:27:35.602Z,8.18
2019-05-10T04:30:04.361Z,10.93
2019-05-10T04:32:32.981Z,9.53
2019-05-10T04:35:01.596Z,9.40
2019-05-10T04:37:30.265Z,10.80
2019-05-10T04:39:58.939Z,10.40
2019-05-10T04:42:27.517Z,10.43
2019-05-10T04:44:56.134Z,11.55
2019-05-10T04:47:24.780Z,11.63
2019-05-10T04:49:53.410Z,11.05
2019-05-10T04:52:22.079Z,11.90
2019-05-10T04:54:50.676Z,11.10
2019-05-10T04:57:19.396Z,11.57
2019-05-10T04:59:47.998Z,11.33
2019-05-10T05:02:21.651Z,11.25
2019-05-10T05:04:47.125Z,12.50
2019-05-10T05:07:15.831Z,12.13
2019-05-10T05:09:44.453Z,10.90
2019-05-10T05:12:13.160Z,10.93
2019-05-10T05:14:42.030Z,12.00
2019-05-10T05:17:10.649Z,11.67
2019-05-10T05:19:40.998Z,11.70
2019-05-10T05:22:09.823Z,10.93
2019-05-10T05:24:38.425Z,10.80
2019-05-10T05:27:07.130Z,10.73
2019-05-10T05:29:35.747Z,9.70
2019-05-10T05:32:04.482Z,10.05
2019-05-10T05:34:33.099Z,9.43
2019-05-10T05:37:01.784Z,10.32
2019-05-10T05:39:30.406Z,9.87
2019-05-10T05:41:59.073Z,9.30
2019-05-10T05:44:27.965Z,9.30
2019-05-10T05:46:56.791Z,8.30
2019-05-10T05:49:25.461Z,8.53
2019-05-10T05:51:54.033Z,7.60
2019-05-10T05:54:22.865Z,7.30
2019-05-10T05:56:53.131Z,6.53
2019-05-10T05:59:23.753Z,7.23
2019-05-10T06:01:52.252Z,6.12
2019-05-10T06:04:20.881Z,6.47
2019-05-10T06:06:53.774Z,5.70
2019-05-10T06:09:19.816Z,6.03
2019-05-10T06:11:48.453Z,7.83
2019-05-10T06:14:17.069Z,6.33
2019-05-10T06:16:51.235Z,5.60
2019-05-10T06:19:20.457Z,5.37
2019-05-10T06:21:46.353Z,6.23
2019-05-10T06:24:15.864Z,5.47
2019-05-10T06:26:44.715Z,4.77
2019-05-10T06:29:17.686Z,5.30
2019-05-10T06:31:43.746Z,5.50
2019-05-10T06:34:12.442Z,4.90
2019-05-10T06:36:41.054Z,4.97
2019-05-10T06:39:09.808Z,4.80
2019-05-10T06:41:38.410Z,4.53
2019-05-10T06:44:07.088Z,4.60
2019-05-10T06:46:35.715Z,4.20
2019-05-10T06:49:08.449Z,5.07
2019-05-10T06:51:35.036Z,4.50
2019-05-10T06:54:03.641Z,3.97
2019-05-10T06:56:32.257Z,4.30
2019-05-10T06:59:13.168Z,4.03
2019-05-10T07:01:31.408Z,3.70
2019-05-10T07:04:00.080Z,4.30
2019-05-10T07:06:28.771Z,3.80
2019-05-10T07:08:59.192Z,4.13
2019-05-10T07:11:27.715Z,3.70
2019-05-10T07:13:56.335Z,3.77
2019-05-10T07:16:26.129Z,4.17
2019-05-10T07:19:00.347Z,3.40
2019-05-10T07:21:25.371Z,3.07
2019-05-10T07:23:53.955Z,3.13
2019-05-10T07:26:24.807Z,3.17
2019-05-10T07:28:57.774Z,3.07
2019-05-10T07:31:23.912Z,3.20
2019-05-10T07:33:52.601Z,2.63
2019-05-10T07:36:27.255Z,3.07
2019-05-10T07:38:51.542Z,2.60
2019-05-10T07:41:26.323Z,2.70
2019-05-10T07:43:50.521Z,3.00
2019-05-10T07:46:19.131Z,3.47
2019-05-10T07:48:53.445Z,3.70
2019-05-10T07:51:23.032Z,2.27
2019-05-10T07:53:48.532Z,3.20
2019-05-10T07:56:17.223Z,2.47
2019-05-10T07:58:45.832Z,2.10
2019-05-10T08:01:14.430Z,2.37
2019-05-10T08:03:48.166Z,2.30
2019-05-10T08:06:15.522Z,1.80
2019-05-10T08:08:43.841Z,2.30
2019-05-10T08:11:12.535Z,2.30
2019-05-10T08:13:41.320Z,2.10
2019-05-10T08:16:14.440Z,2.17
2019-05-10T08:18:42.477Z,2.90
2019-05-10T08:21:21.470Z,1.80
2019-05-10T08:23:43.741Z,2.30
2019-05-10T08:26:19.715Z,2.40
2019-05-10T08:28:44.655Z,1.77
2019-05-10T08:31:12.558Z,2.00
2019-05-10T08:33:44.170Z,2.23
2019-05-10T08:36:12.246Z,2.30
2019-05-10T08:38:46.770Z,2.00
2019-05-10T08:41:14.772Z,1.80
2019-05-10T08:43:43.108Z,1.30
2019-05-10T08:46:12.151Z,1.60
2019-05-10T08:48:46.549Z,1.70
2019-05-10T08:51:12.540Z,1.93
2019-05-10T08:53:42.080Z,1.80
2019-05-10T08:56:13.668Z,1.40
2019-05-10T08:58:42.175Z,1.77
2019-05-10T09:01:20.856Z,2.17
2019-05-10T09:03:42.210Z,1.60
2019-05-10T09:06:15.904Z,1.70
2019-05-10T09:08:43.200Z,1.40
2019-05-10T09:11:11.563Z,1.30
2019-05-10T09:13:44.963Z,1.50
2019-05-10T09:16:10.507Z,1.67
2019-05-10T09:18:46.283Z,1.53
2019-05-10T09:21:11.573Z,1.70
2019-05-10T09:23:42.501Z,1.20
2019-05-10T09:26:16.242Z,1.30
2019-05-10T09:28:42.157Z,1.67
2019-05-10T09:31:18.810Z,0.93
2019-05-10T09:33:49.256Z,1.87
2019-05-10T09:36:12.504Z,1.47
2019-05-10T09:38:43.411Z,1.27
2019-05-10T09:41:11.919Z,1.23
2019-05-10T09:43:48.489Z,1.60
2019-05-10T09:46:11.473Z,1.40
2019-05-10T09:48:44.653Z,1.37
2019-05-10T09:51:13.805Z,1.23
2019-05-10T09:53:42.073Z,1.20
2019-05-10T09:56:10.761Z,1.43
2019-05-10T09:58:39.417Z,1.17
2019-05-10T10:01:16.991Z,1.87
2019-05-10T10:03:43.210Z,1.23
2019-05-10T10:06:11.317Z,1.00
2019-05-10T10:08:43.573Z,1.10
2019-05-10T10:11:15.053Z,2.13
2019-05-10T10:13:43.829Z,1.33
2019-05-10T10:16:14.740Z,1.33
2019-05-10T10:18:40.705Z,1.00
2019-05-10T10:21:10.384Z,1.20
2019-05-10T10:23:39.673Z,0.90
2019-05-10T10:26:12.707Z,0.97
2019-05-10T10:28:39.690Z,0.90
2019-05-10T10:31:08.760Z,0.90
2019-05-10T10:33:38.061Z,1.70
2019-05-10T10:36:09.931Z,1.20
2019-05-10T10:38:45.378Z,0.83
2019-05-10T10:41:08.291Z,1.23
2019-05-10T10:43:37.396Z,1.43
2019-05-10T10:46:11.973Z,0.80
2019-05-10T10:48:37.069Z,0.80
2019-05-10T10:51:07.914Z,0.80
2019-05-10T10:53:36.196Z,1.07
2019-05-10T10:56:07.493Z,1.13
2019-05-10T10:58:35.240Z,0.80
2019-05-10T11:01:10.786Z,0.70
2019-05-10T11:03:34.230Z,0.70
2019-05-10T11:06:02.845Z,0.60
2019-05-10T11:08:33.220Z,0.87
2019-05-10T11:11:01.922Z,0.90
2019-05-10T11:13:43.964Z,0.80
2019-05-10T11:16:09.879Z,1.17
2019-05-10T11:18:31.892Z,0.83
2019-05-10T11:21:01.945Z,0.70
2019-05-10T11:23:38.725Z,0.70
2019-05-10T11:26:01.448Z,0.77
2019-05-10T11:28:38.673Z,0.80
2019-05-10T11:31:01.198Z,0.80
2019-05-10T11:33:33.352Z,0.60
2019-05-10T11:36:05.824Z,0.80
2019-05-10T11:38:31.795Z,0.70
2019-05-10T11:41:01.939Z,1.00
2019-05-10T11:43:31.406Z,0.87
2019-05-10T11:46:00.142Z,0.97
2019-05-10T11:48:36.929Z,0.80
2019-05-10T11:50:59.170Z,0.93
2019-05-10T11:53:27.767Z,0.60
2019-05-10T11:55:56.409Z,0.83
2019-05-10T11:58:25.003Z,0.80
2019-05-10T12:00:59.460Z,0.67
2019-05-10T12:03:23.958Z,0.90
2019-05-10T12:06:04.560Z,0.70
2019-05-10T12:08:23.002Z,0.60
2019-05-10T12:10:54.435Z,0.97
2019-05-10T12:13:24.803Z,0.87
2019-05-10T12:15:52.393Z,0.77
2019-05-10T12:18:26.514Z,0.77
2019-05-10T12:21:00.149Z,0.80
2019-05-10T12:23:24.884Z,1.00
2019-05-10T12:26:49.962Z,0.77
2019-05-10T12:28:28.472Z,0.70
2019-05-10T12:30:52.722Z,0.90
2019-05-10T12:33:27.397Z,0.60
2019-05-10T12:35:51.667Z,0.87
2019-05-10T12:38:23.486Z,0.80
2019-05-10T12:40:51.435Z,0.70
2019-05-10T12:43:21.142Z,0.70
2019-05-10T12:46:42.198Z,0.60
2019-05-10T12:49:12.022Z,0.70
2019-05-10T12:51:43.147Z,0.70
2019-05-10T12:54:11.383Z,0.60
2019-05-10T12:56:43.710Z,0.80
2019-05-10T12:59:10.514Z,0.70
2019-05-10T13:01:39.194Z,0.93
2019-05-10T13:04:14.630Z,1.20
2019-05-10T13:06:38.117Z,1.37
2019-05-10T13:09:07.325Z,0.67
2019-05-10T13:11:36.096Z,0.80
2019-05-10T13:14:07.598Z,0.70
2019-05-10T13:16:35.109Z,0.70
2019-05-10T13:19:03.728Z,0.73
2019-05-10T13:21:32.354Z,0.67
2019-05-10T13:24:01.035Z,0.73
2019-05-10T13:26:29.658Z,0.50
2019-05-10T13:29:02.225Z,0.90
2019-05-10T13:31:28.650Z,0.67
2019-05-10T13:33:57.364Z,1.07
2019-05-10T13:36:30.553Z,1.30
2019-05-10T13:38:56.396Z,0.83
2019-05-10T13:41:26.619Z,0.93
2019-05-10T13:43:58.839Z,0.70
2019-05-10T13:46:25.717Z,0.80
2019-05-10T13:48:54.321Z,0.70
2019-05-10T13:51:22.956Z,0.73
2019-05-10T13:53:53.781Z,0.70
2019-05-10T13:56:21.949Z,0.83
2019-05-10T13:58:50.588Z,1.03
2019-05-10T14:01:19.235Z,0.90
2019-05-10T14:03:53.914Z,1.03
2019-05-10T14:06:18.214Z,0.70
2019-05-10T14:08:48.319Z,0.90
2019-05-10T14:11:17.333Z,0.90
2019-05-10T14:13:46.034Z,0.70
2019-05-10T14:16:19.478Z,0.80
2019-05-10T14:18:45.022Z,0.77
2019-05-10T14:21:13.623Z,0.70
2019-05-10T14:23:42.261Z,0.90
2019-05-10T14:26:15.839Z,0.90
2019-05-10T14:28:41.249Z,0.90
2019-05-10T14:31:09.923Z,0.80
2019-05-10T14:33:38.553Z,0.83
2019-05-10T14:36:07.146Z,0.80
2019-05-10T14:38:35.775Z,0.70
2019-05-10T14:41:11.074Z,0.60
2019-05-10T14:43:34.853Z,0.80
2019-05-10T14:46:03.616Z,6.20
2019-05-10T14:48:35.406Z,0.60
2019-05-10T14:51:09.852Z,1.20
2019-05-10T14:53:32.942Z,1.20
2019-05-10T14:56:01.692Z,0.70
2019-05-10T14:58:30.303Z,1.10
2019-05-10T15:00:58.985Z,0.80
2019-05-10T15:03:27.612Z,0.80
2019-05-10T15:06:00.994Z,1.07
2019-05-10T15:08:26.630Z,0.90
2019-05-10T15:10:57.310Z,0.67
2019-05-10T15:13:28.168Z,0.70
2019-05-10T15:15:55.995Z,0.70
2019-05-10T15:18:24.672Z,0.70
2019-05-10T15:20:53.273Z,0.77
2019-05-10T15:23:21.912Z,0.90
2019-05-10T15:25:57.235Z,0.57
2019-05-10T15:28:20.847Z,0.90
2019-05-10T15:30:52.587Z,0.87
2019-05-10T15:33:19.797Z,0.60
2019-05-10T15:35:51.980Z,0.80
2019-05-10T15:38:18.740Z,1.03
2019-05-10T15:40:47.447Z,0.70
2019-05-10T15:43:18.699Z,0.90
2019-05-10T15:45:52.494Z,1.17
2019-05-10T15:48:17.261Z,0.80
2019-05-10T15:50:45.891Z,1.00
2019-05-10T15:53:19.333Z,0.80
2019-05-10T15:55:45.024Z,0.77
2019-05-10T15:58:13.613Z,0.90
2019-05-10T16:00:42.233Z,2.80
2019-05-10T16:03:10.838Z,1.70
2019-05-10T16:05:43.624Z,1.03
2019-05-10T16:08:09.810Z,0.70
2019-05-10T16:10:40.719Z,0.77
2019-05-10T16:13:08.857Z,0.80
2019-05-10T16:15:37.485Z,0.60
2019-05-10T16:18:06.185Z,0.90
2019-05-10T16:20:37.122Z,0.90
2019-05-10T16:23:09.020Z,0.80
2019-05-10T16:25:41.843Z,0.73
2019-05-10T16:28:05.996Z,0.80
2019-05-10T16:30:36.586Z,0.67
2019-05-10T16:33:09.756Z,0.70
2019-05-10T16:35:38.992Z,0.70
2019-05-10T16:38:06.190Z,0.70
2019-05-10T16:40:34.822Z,0.80
2019-05-10T16:43:06.757Z,0.70
2019-05-10T16:45:34.092Z,1.00
2019-05-10T16:48:05.602Z,0.80
2019-05-10T16:50:33.863Z,0.70
2019-05-10T16:53:05.813Z,1.60
2019-05-10T16:55:35.592Z,0.90
2019-05-10T16:58:03.530Z,0.70
2019-05-10T17:00:32.258Z,0.80
2019-05-10T17:03:00.890Z,0.80
2019-05-10T17:05:29.519Z,0.70
2019-05-10T17:07:58.746Z,0.80
2019-05-10T17:10:33.120Z,0.70
2019-05-10T17:12:59.446Z,0.70
2019-05-10T17:15:28.447Z,0.70
2019-05-10T17:17:57.153Z,0.90
2019-05-10T17:20:25.755Z,0.80
2019-05-10T17:22:54.453Z,1.27
2019-05-10T17:25:23.058Z,0.77
2019-05-10T17:27:57.758Z,0.63
2019-05-10T17:30:27.577Z,0.80
2019-05-10T17:32:52.463Z,0.60
2019-05-10T17:35:21.092Z,0.70
2019-05-10T17:37:52.864Z,0.90
2019-05-10T17:40:20.081Z,0.80
2019-05-10T17:42:51.496Z,0.73
2019-05-10T17:45:19.127Z,0.80
2019-05-10T17:47:47.786Z,0.80
2019-05-10T17:50:16.526Z,1.00
2019-05-10T17:52:45.185Z,0.80
2019-05-10T17:55:16.748Z,0.70
2019-05-10T17:57:48.663Z,0.90
2019-05-10T18:00:15.027Z,0.80
2019-05-10T18:02:43.677Z,1.37
2019-05-10T18:05:12.461Z,0.80
2019-05-10T18:07:41.091Z,0.70
2019-05-10T18:10:09.890Z,1.10
2019-05-10T18:12:38.550Z,0.70
2019-05-10T18:15:08.239Z,1.10
2019-05-10T18:17:37.004Z,1.00
2019-05-10T18:20:06.201Z,1.10
2019-05-10T18:22:42.488Z,1.20
2019-05-10T18:25:19.366Z,1.43
2019-05-10T18:27:41.725Z,1.67
2019-05-10T18:30:17.453Z,1.30
2019-05-10T18:32:49.588Z,1.60
2019-05-10T18:35:32.928Z,2.07
2019-05-10T18:38:08.601Z,2.20
2019-05-10T18:40:41.368Z,2.07
2019-05-10T18:43:11.062Z,1.50
2019-05-10T18:45:40.595Z,1.57
2019-05-10T18:48:13.483Z,1.23
2019-05-10T18:50:47.412Z,1.40
2019-05-10T18:53:21.783Z,0.80
2019-05-10T18:55:53.587Z,1.40
2019-05-10T18:58:28.989Z,1.40
2019-05-10T19:01:00.787Z,1.17
2019-05-10T19:03:33.577Z,1.20
2019-05-10T19:06:14.403Z,1.10
2019-05-10T19:08:45.215Z,1.27
2019-05-10T19:11:15.389Z,1.70
2019-05-10T19:13:53.741Z,1.30
2019-05-10T19:16:32.112Z,1.07
2019-05-10T19:19:01.825Z,1.20
2019-05-10T19:21:37.296Z,1.40
2019-05-10T19:24:04.310Z,1.20
2019-05-10T19:26:38.005Z,1.50
2019-05-10T19:29:09.888Z,1.40
2019-05-10T19:31:41.628Z,1.60
2019-05-10T19:34:15.447Z,2.53
2019-05-10T19:36:45.137Z,1.90
2019-05-10T19:39:14.759Z,2.80
2019-05-10T19:41:46.703Z,2.40
2019-05-10T19:44:20.246Z,2.23
2019-05-10T19:46:50.454Z,2.10
2019-05-10T19:49:23.097Z,2.00
2019-05-10T19:52:07.218Z,2.00
2019-05-10T19:54:51.125Z,2.53
2019-05-10T19:57:28.188Z,2.40
2019-05-10T20:00:19.526Z,2.57
2019-05-10T20:02:53.770Z,2.90
2019-05-10T20:05:28.890Z,2.97
2019-05-10T20:08:00.029Z,3.00
2019-05-10T20:10:36.397Z,2.97
2019-05-10T20:13:25.987Z,3.80
2019-05-10T20:16:01.253Z,3.10
2019-05-10T20:18:31.248Z,3.10
2019-05-10T20:21:15.985Z,2.60
2019-05-10T20:23:47.023Z,2.70
2019-05-10T20:26:17.231Z,2.83
2019-05-10T20:28:48.484Z,2.57
2019-05-10T20:31:18.304Z,2.90
2019-05-10T20:33:49.931Z,3.23
2019-05-10T20:36:23.624Z,2.80
2019-05-10T20:38:55.387Z,2.43
2019-05-10T20:41:27.170Z,2.20
2019-05-10T20:43:57.700Z,1.90
2019-05-10T20:46:29.275Z,1.70
2019-05-10T20:49:02.543Z,1.27
2019-05-10T20:51:32.387Z,1.50
2019-05-10T20:54:03.021Z,1.67
2019-05-10T20:56:48.067Z,2.30
2019-05-10T20:59:20.785Z,1.80
2019-05-10T21:01:54.411Z,2.00
2019-05-10T21:04:24.075Z,2.03
2019-05-10T21:06:53.663Z,2.50
2019-05-10T21:09:24.392Z,3.90
2019-05-10T21:11:57.577Z,3.93
2019-05-10T21:14:28.559Z,3.30
2019-05-10T21:17:21.699Z,3.50
2019-05-10T21:19:51.942Z,2.20
2019-05-10T21:22:45.551Z,2.20
2019-05-10T21:25:23.947Z,2.43
2019-05-10T21:27:59.432Z,3.10
2019-05-10T21:33:37.866Z,7.07
2019-05-10T21:36:08.836Z,8.17
2019-05-10T21:38:41.740Z,8.20
2019-05-10T21:41:30.881Z,9.00
2019-05-10T21:44:13.224Z,8.33
2019-05-10T21:46:42.715Z,7.33
2019-05-10T21:49:11.805Z,8.00
2019-05-10T21:51:45.605Z,7.10
2019-05-10T21:54:19.739Z,4.93
2019-05-10T21:56:52.241Z,4.20
2019-05-10T21:59:26.562Z,6.30
2019-05-10T22:01:58.757Z,4.77
2019-05-10T22:04:31.359Z,5.13
2019-05-10T22:07:06.926Z,4.20
2019-05-10T22:09:40.710Z,3.40
2019-05-10T22:12:10.292Z,3.63
2019-05-10T22:14:40.105Z,3.30
2019-05-10T22:17:15.919Z,3.47
2019-05-10T22:19:45.378Z,3.53
2019-05-10T22:22:37.002Z,3.70
2019-05-10T22:25:08.423Z,3.50
2019-05-10T22:27:40.308Z,3.37
2019-05-10T22:30:18.534Z,3.73
2019-05-10T22:33:05.015Z,3.77
2019-05-10T22:35:41.058Z,3.60
2019-05-10T22:38:22.823Z,3.23
2019-05-10T22:41:04.116Z,2.97
2019-05-10T22:43:40.803Z,3.03
2019-05-10T22:46:11.372Z,2.83
2019-05-10T22:48:43.438Z,3.07
2019-05-10T22:51:16.399Z,3.23
2019-05-10T22:53:59.650Z,2.90
2019-05-10T22:56:23.570Z,2.70
2019-05-10T22:59:03.028Z,3.20
2019-05-10T23:01:35.373Z,3.27
2019-05-10T23:04:06.275Z,3.50
2019-05-10T23:06:38.208Z,3.53
2019-05-10T23:09:23.935Z,3.10
2019-05-10T23:11:49.145Z,3.23
2019-05-10T23:14:18.870Z,3.27
2019-05-10T23:16:50.187Z,2.60
2019-05-10T23:19:21.228Z,2.60
2019-05-10T23:21:52.580Z,3.00
2019-05-10T23:24:37.020Z,2.70
2019-05-10T23:27:06.694Z,2.97
2019-05-10T23:29:35.398Z,3.40
2019-05-10T23:32:04.178Z,3.50
2019-05-10T23:34:32.822Z,4.00
2019-05-10T23:37:01.442Z,4.30
2019-05-10T23:39:40.416Z,4.20
2019-05-10T23:42:00.562Z,4.10
2019-05-10T23:44:29.168Z,4.67
2019-05-10T23:46:57.902Z,3.50
2019-05-10T23:49:26.548Z,3.87
2019-05-10T23:51:55.110Z,3.93
2019-05-10T23:54:23.714Z,3.30
2019-05-10T23:56:52.342Z,3.83
2019-05-10T23:59:21.027Z,3.77
